createdAt,value
2019-05-20T16:41:53.029Z,17.72
2019-05-20T16:44:28.971Z,17.79
2019-05-20T16:47:03.526Z,17.64
2019-05-20T16:49:41.118Z,17.76
2019-05-20T16:52:27.995Z,17.53
2019-05-20T16:55:02.125Z,17.92
2019-05-20T16:57:36.416Z,18.04
2019-05-20T17:00:29.318Z,18.02
2019-05-20T17:02:46.261Z,18.02
2019-05-20T17:05:22.779Z,18.08
2019-05-20T17:07:54.936Z,18.31
2019-05-20T17:10:30.463Z,18.46
2019-05-20T17:13:02.773Z,18.29
2019-05-20T17:15:34.640Z,18.43
2019-05-20T17:18:11.230Z,18.59
2019-05-20T17:20:48.264Z,18.69
2019-05-20T17:23:25.469Z,18.68
2019-05-20T17:26:05.048Z,18.44
2019-05-20T17:28:48.863Z,18.35
2019-05-20T17:31:30.655Z,18.65
2019-05-20T17:34:03.719Z,18.72
2019-05-20T17:36:42.080Z,19.07
2019-05-20T17:39:21.192Z,19.10
2019-05-20T17:41:57.110Z,19.05
2019-05-20T17:44:32.793Z,19.27
2019-05-20T17:47:12.465Z,19.16
2019-05-20T17:49:52.455Z,19.14
2019-05-20T17:52:24.113Z,18.90
2019-05-20T17:55:06.834Z,18.95
2019-05-20T17:57:38.689Z,18.85
2019-05-20T18:00:11.774Z,18.90
2019-05-20T18:02:50.134Z,18.72
2019-05-20T18:05:35.455Z,18.23
2019-05-20T18:08:07.115Z,18.28
2019-05-20T18:10:45.727Z,18.09
2019-05-20T18:13:18.004Z,18.46
2019-05-20T18:15:50.584Z,18.35
2019-05-20T18:18:23.438Z,18.34
2019-05-20T18:20:57.761Z,18.42
2019-05-20T18:23:31.107Z,18.45
2019-05-20T18:26:20.959Z,18.42
2019-05-20T18:28:56.185Z,18.19
2019-05-20T18:31:34.459Z,18.28
2019-05-20T18:34:21.943Z,18.56
2019-05-20T18:36:53.173Z,18.58
2019-05-20T18:39:32.625Z,18.46
2019-05-20T18:42:21.304Z,18.48
2019-05-20T18:44:57.780Z,17.72
2019-05-20T18:47:38.199Z,17.52
2019-05-20T18:50:09.653Z,17.72
2019-05-20T18:52:41.322Z,17.96
2019-05-20T18:55:15.979Z,17.58
2019-05-20T18:57:49.527Z,17.32
2019-05-20T19:00:21.385Z,17.67
2019-05-20T19:02:54.903Z,18.11
2019-05-20T19:05:26.443Z,18.38
2019-05-20T19:07:59.758Z,18.40
2019-05-20T19:10:32.313Z,18.34
2019-05-20T19:13:05.398Z,18.72
2019-05-20T19:15:38.687Z,18.76
